createdAt,value
2022-12-03T00:00:12.907Z,-3.08
2022-12-03T00:03:05.020Z,-3.05
2022-12-03T00:05:33.280Z,-3.02
2022-12-03T00:08:01.560Z,-3.01
2022-12-03T00:10:31.378Z,-3.01
2022-12-03T00:12:59.467Z,-3.01
2022-12-03T00:15:27.768Z,-3.02
2022-12-03T00:17:56.254Z,-3.01
2022-12-03T00:20:25.410Z,-3.01
2022-12-03T00:22:53.651Z,-3.00
2022-12-03T00:25:21.940Z,-3.00
2022-12-03T00:27:49.980Z,-3.01
2022-12-03T00:30:18.634Z,-3.00
2022-12-03T00:32:47.114Z,-2.99
2022-12-03T00:35:15.421Z,-2.99
2022-12-03T00:37:43.693Z,-2.99
2022-12-03T00:40:12.919Z,-2.99
2022-12-03T00:42:43.862Z,-3.01
2022-12-03T00:45:12.822Z,-3.04
2022-12-03T00:47:44.111Z,-3.05
2022-12-03T00:50:13.307Z,-3.08
2022-12-03T00:52:41.924Z,-3.10
2022-12-03T00:55:10.319Z,-3.06
2022-12-03T00:57:38.385Z,-3.05
2022-12-03T01:00:07.384Z,-3.04
2022-12-03T01:02:35.910Z,-3.04
2022-12-03T01:05:04.954Z,-3.04
2022-12-03T01:07:33.476Z,-3.05
2022-12-03T01:10:02.477Z,-3.04
2022-12-03T01:12:30.571Z,-3.00
2022-12-03T01:14:58.822Z,-2.99
2022-12-03T01:17:27.026Z,-3.02
2022-12-03T01:19:55.231Z,-3.05
2022-12-03T01:22:23.760Z,-3.04
2022-12-03T01:24:52.378Z,-3.05
2022-12-03T01:27:20.685Z,-3.08
2022-12-03T01:29:49.516Z,-3.07
2022-12-03T01:32:19.786Z,-3.05
2022-12-03T01:34:54.229Z,-3.07
2022-12-03T01:37:25.191Z,-3.08
2022-12-03T01:39:53.461Z,-3.09
2022-12-03T01:42:24.958Z,-3.08
2022-12-03T01:44:57.229Z,-3.10
2022-12-03T01:47:30.448Z,-3.12
2022-12-03T01:50:01.740Z,-3.12
2022-12-03T01:52:31.769Z,-3.11
2022-12-03T01:55:03.485Z,-3.09
2022-12-03T01:57:42.368Z,-3.09
2022-12-03T02:00:17.207Z,-3.06
2022-12-03T02:03:17.128Z,-3.06
2022-12-03T02:05:45.474Z,-3.05
2022-12-03T02:08:46.985Z,-3.03
2022-12-03T02:11:35.885Z,-3.02
2022-12-03T02:14:08.324Z,-3.03
2022-12-03T02:16:38.560Z,-3.01
2022-12-03T02:19:16.680Z,-2.99
2022-12-03T02:22:01.716Z,-2.94
2022-12-03T02:24:54.043Z,-2.90
2022-12-03T02:27:23.263Z,-2.91
2022-12-03T02:29:51.839Z,-2.93
2022-12-03T02:32:23.394Z,-2.93
2022-12-03T02:34:52.323Z,-2.94
2022-12-03T02:37:26.812Z,-2.96
2022-12-03T02:39:58.825Z,-2.96
2022-12-03T02:42:36.055Z,-2.94
2022-12-03T02:45:10.008Z,-2.94
2022-12-03T02:47:44.781Z,-2.92
2022-12-03T02:50:18.052Z,-2.92
2022-12-03T02:52:47.924Z,-2.91
2022-12-03T02:55:17.947Z,-2.89
2022-12-03T02:57:49.100Z,-2.89
2022-12-03T03:00:19.116Z,-2.90
2022-12-03T03:02:51.072Z,-2.91
2022-12-03T03:05:23.475Z,-2.93
2022-12-03T03:07:52.320Z,-2.92
2022-12-03T03:10:23.548Z,-2.92
2022-12-03T03:12:54.194Z,-2.91
2022-12-03T03:15:23.585Z,-2.90
2022-12-03T03:17:52.064Z,-2.91
2022-12-03T03:20:20.282Z,-2.93
2022-12-03T03:22:48.534Z,-2.95
2022-12-03T03:25:21.124Z,-2.94
2022-12-03T03:27:49.780Z,-2.89
2022-12-03T03:30:17.872Z,-2.87
2022-12-03T03:32:45.989Z,-2.86
2022-12-03T03:35:14.902Z,-2.84
2022-12-03T03:37:43.089Z,-2.83
2022-12-03T03:40:12.194Z,-2.84
2022-12-03T03:42:40.741Z,-2.85
2022-12-03T03:45:09.714Z,-2.86
2022-12-03T03:47:38.931Z,-2.88
2022-12-03T03:50:08.889Z,-2.88
2022-12-03T03:52:37.946Z,-2.88
2022-12-03T03:55:08.085Z,-2.87
2022-12-03T03:57:36.724Z,-2.85
2022-12-03T04:00:09.357Z,-2.84
2022-12-03T04:02:38.109Z,-2.81
2022-12-03T04:05:07.056Z,-2.77
2022-12-03T04:07:35.122Z,-2.77
2022-12-03T04:10:24.142Z,-2.78
2022-12-03T04:12:57.942Z,-2.79
2022-12-03T04:15:26.490Z,-2.80
2022-12-03T04:18:13.354Z,-2.84
2022-12-03T04:20:43.123Z,-2.83
2022-12-03T04:23:11.420Z,-2.84
2022-12-03T04:25:58.465Z,-2.82
2022-12-03T04:28:45.649Z,-2.79
2022-12-03T04:31:37.022Z,-2.77
2022-12-03T04:34:24.381Z,-2.77
2022-12-03T04:36:52.553Z,-2.79
2022-12-03T04:39:21.178Z,-2.84
2022-12-03T04:41:49.377Z,-2.85
2022-12-03T04:44:36.389Z,-2.83
2022-12-03T04:47:12.247Z,-2.79
2022-12-03T04:49:48.962Z,-2.76
2022-12-03T04:52:18.819Z,-2.78
2022-12-03T04:54:47.371Z,-2.79
2022-12-03T04:57:15.850Z,-2.80
2022-12-03T04:59:44.097Z,-2.79
2022-12-03T05:02:12.237Z,-2.79
2022-12-03T05:04:40.606Z,-2.80
2022-12-03T05:07:09.093Z,-2.79
2022-12-03T05:09:37.143Z,-2.77
2022-12-03T05:12:05.442Z,-2.75
2022-12-03T05:14:33.661Z,-2.76
2022-12-03T05:17:01.819Z,-2.75
2022-12-03T05:19:48.789Z,-2.73
2022-12-03T05:22:17.602Z,-2.71
2022-12-03T05:24:45.799Z,-2.70
2022-12-03T05:27:15.790Z,-2.71
2022-12-03T05:29:47.681Z,-2.73
2022-12-03T05:32:16.047Z,-2.72
2022-12-03T05:34:44.165Z,-2.71
2022-12-03T05:37:12.482Z,-2.69
2022-12-03T05:39:40.816Z,-2.67
2022-12-03T05:42:28.669Z,-2.66
2022-12-03T05:44:57.776Z,-2.63
2022-12-03T05:47:25.864Z,-2.64
2022-12-03T05:49:54.009Z,-2.66
2022-12-03T05:52:22.470Z,-2.67
2022-12-03T05:54:51.170Z,-2.69
2022-12-03T05:57:19.406Z,-2.70
2022-12-03T05:59:47.800Z,-2.72
2022-12-03T06:02:16.322Z,-2.74
2022-12-03T06:04:44.584Z,-2.74
2022-12-03T06:07:14.273Z,-2.74
2022-12-03T06:09:43.529Z,-2.73
2022-12-03T06:12:11.592Z,-2.71
2022-12-03T06:14:39.911Z,-2.66
2022-12-03T06:17:08.296Z,-2.64
2022-12-03T06:19:36.399Z,-2.64
2022-12-03T06:22:04.788Z,-2.64
2022-12-03T06:24:32.897Z,-2.61
2022-12-03T06:27:00.956Z,-2.60
2022-12-03T06:29:29.139Z,-2.60
2022-12-03T06:31:57.262Z,-2.61
2022-12-03T06:34:25.517Z,-2.59
2022-12-03T06:36:53.996Z,-2.59
2022-12-03T06:39:22.893Z,-2.58
2022-12-03T06:41:51.227Z,-2.53
2022-12-03T06:44:19.738Z,-2.51
2022-12-03T06:46:48.127Z,-2.50
2022-12-03T06:49:16.287Z,-2.48
2022-12-03T06:51:44.848Z,-2.49
2022-12-03T06:54:12.923Z,-2.50
2022-12-03T06:56:45.182Z,-2.48
2022-12-03T06:59:14.399Z,-2.45
2022-12-03T07:01:42.898Z,-2.41
2022-12-03T07:04:11.108Z,-2.35
2022-12-03T07:06:39.857Z,-2.33
2022-12-03T07:09:08.034Z,-2.30
2022-12-03T07:11:42.216Z,-2.29
2022-12-03T07:14:11.596Z,-2.27
2022-12-03T07:16:40.132Z,-2.24
2022-12-03T07:19:08.860Z,-2.23
2022-12-03T07:21:37.102Z,-2.21
2022-12-03T07:24:05.833Z,-2.17
2022-12-03T07:26:34.225Z,-2.16
2022-12-03T07:29:02.727Z,-2.12
2022-12-03T07:31:31.319Z,-2.07
2022-12-03T07:33:59.751Z,-2.02
2022-12-03T07:36:27.899Z,-1.96
2022-12-03T07:38:55.996Z,-1.87
2022-12-03T07:41:24.111Z,-1.81
2022-12-03T07:43:52.487Z,-1.73
2022-12-03T07:46:20.664Z,-1.67
2022-12-03T07:48:48.753Z,-1.61
2022-12-03T07:51:17.278Z,-1.60
2022-12-03T07:53:45.427Z,-1.58
2022-12-03T07:56:13.757Z,-1.53
2022-12-03T07:58:42.141Z,-1.49
2022-12-03T08:01:10.541Z,-1.45
2022-12-03T08:03:38.895Z,-1.43
2022-12-03T08:06:09.400Z,-1.43
2022-12-03T08:08:37.573Z,-1.43
2022-12-03T08:11:06.412Z,-1.44
2022-12-03T08:13:34.919Z,-1.42
2022-12-03T08:16:14.955Z,-1.39
2022-12-03T08:18:43.545Z,-1.34
2022-12-03T08:21:14.213Z,-1.24
2022-12-03T08:23:42.897Z,-1.12
2022-12-03T08:26:26.440Z,-1.08
2022-12-03T08:28:54.746Z,-1.00
2022-12-03T08:31:32.497Z,-0.95
2022-12-03T08:34:19.915Z,-0.93
2022-12-03T08:36:52.186Z,-0.92
2022-12-03T08:39:23.521Z,-0.88
2022-12-03T08:42:21.202Z,-0.80
2022-12-03T08:44:49.518Z,-0.69
2022-12-03T08:47:24.934Z,-0.61
2022-12-03T08:50:01.419Z,-0.53
2022-12-03T08:52:34.060Z,-0.46
2022-12-03T08:55:32.059Z,-0.39
2022-12-03T08:58:00.629Z,-0.30
2022-12-03T09:00:28.745Z,-0.33
2022-12-03T09:03:01.290Z,-0.35
2022-12-03T09:05:34.998Z,-0.37
2022-12-03T09:08:03.381Z,-0.34
2022-12-03T09:10:31.664Z,-0.31
2022-12-03T09:12:59.827Z,-0.30
2022-12-03T09:15:28.629Z,-0.31
2022-12-03T09:17:56.920Z,-0.26
2022-12-03T09:20:24.963Z,-0.20
2022-12-03T09:22:53.207Z,-0.23
2022-12-03T09:25:21.556Z,-0.21
2022-12-03T09:27:50.109Z,-0.17
2022-12-03T09:30:18.527Z,-0.11
2022-12-03T09:32:46.739Z,-0.11
2022-12-03T09:35:17.813Z,-0.15
2022-12-03T09:37:46.023Z,-0.15
2022-12-03T09:40:14.951Z,-0.17
2022-12-03T09:42:43.026Z,-0.15
2022-12-03T09:45:13.477Z,-0.11
2022-12-03T09:47:45.846Z,-0.15
2022-12-03T09:50:16.453Z,-0.12
2022-12-03T09:52:45.622Z,-0.15
2022-12-03T09:55:17.736Z,-0.18
2022-12-03T09:57:47.220Z,-0.18
2022-12-03T10:00:21.880Z,-0.12
2022-12-03T10:02:52.980Z,-0.10
2022-12-03T10:05:22.682Z,-0.12
2022-12-03T10:07:52.369Z,-0.19
2022-12-03T10:10:25.562Z,-0.27
2022-12-03T10:12:55.460Z,-0.34
2022-12-03T10:15:24.421Z,-0.33
2022-12-03T10:17:54.716Z,-0.28
2022-12-03T10:20:24.839Z,-0.27
2022-12-03T10:22:53.274Z,-0.25
2022-12-03T10:25:23.121Z,-0.25
2022-12-03T10:28:04.328Z,-0.20
2022-12-03T10:30:33.341Z,-0.19
2022-12-03T10:33:17.320Z,-0.19
2022-12-03T10:35:47.397Z,-0.16
2022-12-03T10:38:24.999Z,-0.16
2022-12-03T10:40:53.387Z,-0.18
2022-12-03T10:43:23.691Z,-0.16
2022-12-03T10:46:04.897Z,-0.14
2022-12-03T10:48:33.327Z,-0.17
2022-12-03T10:51:21.833Z,-0.18
2022-12-03T10:53:50.949Z,-0.17
2022-12-03T10:56:25.439Z,-0.14
2022-12-03T10:58:54.561Z,-0.11
2022-12-03T11:01:25.205Z,-0.06
2022-12-03T11:04:01.232Z,-0.07
2022-12-03T11:06:31.688Z,-0.13
2022-12-03T11:09:05.255Z,-0.20
2022-12-03T11:11:37.204Z,-0.23
2022-12-03T11:14:05.737Z,-0.20
2022-12-03T11:16:39.653Z,-0.17
2022-12-03T11:19:36.281Z,-0.14
2022-12-03T11:22:05.121Z,-0.12
2022-12-03T11:24:38.225Z,-0.10
2022-12-03T11:27:17.108Z,-0.08
2022-12-03T11:30:00.157Z,-0.12
2022-12-03T11:32:43.818Z,-0.13
2022-12-03T11:35:26.046Z,-0.13
2022-12-03T11:37:54.545Z,-0.16
2022-12-03T11:40:22.604Z,-0.15
2022-12-03T11:42:50.865Z,-0.16
2022-12-03T11:45:29.391Z,-0.10
2022-12-03T11:48:31.408Z,-0.02
2022-12-03T11:50:59.627Z,0.01
2022-12-03T11:53:31.515Z,-0.00
2022-12-03T11:56:11.115Z,-0.00
2022-12-03T11:58:43.721Z,-0.05
2022-12-03T12:01:13.171Z,-0.08
2022-12-03T12:03:41.659Z,-0.08
2022-12-03T12:06:18.291Z,-0.10
2022-12-03T12:08:52.406Z,-0.13
2022-12-03T12:11:31.520Z,-0.14
2022-12-03T12:14:05.141Z,-0.12
2022-12-03T12:16:37.342Z,-0.10
2022-12-03T12:19:31.584Z,-0.05
2022-12-03T12:22:27.175Z,-0.05
2022-12-03T12:24:57.850Z,-0.10
2022-12-03T12:27:39.494Z,-0.15
2022-12-03T12:30:19.752Z,-0.18
2022-12-03T12:32:56.141Z,-0.19
2022-12-03T12:35:27.393Z,-0.18
2022-12-03T12:38:07.563Z,-0.13
2022-12-03T12:40:38.396Z,-0.11
2022-12-03T12:43:27.322Z,-0.11
2022-12-03T12:46:09.475Z,-0.15
2022-12-03T12:48:48.480Z,-0.15
2022-12-03T12:51:21.363Z,-0.19
2022-12-03T12:53:50.377Z,-0.23
2022-12-03T12:56:32.325Z,-0.23
2022-12-03T12:59:14.974Z,-0.26
2022-12-03T13:01:45.279Z,-0.31
2022-12-03T13:04:19.691Z,-0.36
2022-12-03T13:06:50.534Z,-0.36
2022-12-03T13:09:24.535Z,-0.33
2022-12-03T13:11:58.650Z,-0.31
2022-12-03T13:14:36.809Z,-0.28
2022-12-03T13:17:26.109Z,-0.27
2022-12-03T13:20:05.555Z,-0.29
2022-12-03T13:22:36.145Z,-0.35
2022-12-03T13:25:59.311Z,-0.35
2022-12-03T13:28:26.406Z,-0.36
2022-12-03T13:30:54.688Z,-0.38
2022-12-03T13:33:28.808Z,-0.39
2022-12-03T13:35:57.603Z,-0.40
2022-12-03T13:38:28.445Z,-0.41
2022-12-03T13:41:05.243Z,-0.41
2022-12-03T13:43:38.719Z,-0.43
2022-12-03T13:46:11.591Z,-0.42
2022-12-03T13:48:40.420Z,-0.43
2022-12-03T13:51:20.130Z,-0.45
2022-12-03T13:53:48.587Z,-0.49
2022-12-03T13:56:28.995Z,-0.53
2022-12-03T13:59:00.522Z,-0.54
2022-12-03T14:01:29.401Z,-0.53
2022-12-03T14:04:00.713Z,-0.55
2022-12-03T14:06:29.062Z,-0.57
2022-12-03T14:08:57.537Z,-0.57
2022-12-03T14:11:44.046Z,-0.55
2022-12-03T14:14:12.563Z,-0.55
2022-12-03T14:16:40.774Z,-0.56
2022-12-03T14:19:09.065Z,-0.56
2022-12-03T14:21:37.395Z,-0.55
2022-12-03T14:24:06.126Z,-0.55
2022-12-03T14:26:37.594Z,-0.57
2022-12-03T14:29:08.775Z,-0.58
2022-12-03T14:31:40.307Z,-0.60
2022-12-03T14:34:08.801Z,-0.60
2022-12-03T14:36:36.891Z,-0.59
2022-12-03T14:39:05.083Z,-0.60
2022-12-03T14:41:51.861Z,-0.61
2022-12-03T14:44:23.606Z,-0.63
2022-12-03T14:46:56.828Z,-0.62
2022-12-03T14:49:25.591Z,-0.62
2022-12-03T14:51:54.213Z,-0.61
2022-12-03T14:54:22.522Z,-0.61
2022-12-03T14:56:50.820Z,-0.61
2022-12-03T14:59:23.132Z,-0.61
2022-12-03T15:01:55.744Z,-0.62
2022-12-03T15:04:25.819Z,-0.63
2022-12-03T15:06:53.999Z,-0.63
2022-12-03T15:09:23.834Z,-0.63
2022-12-03T15:11:52.074Z,-0.64
2022-12-03T15:14:23.596Z,-0.62
2022-12-03T15:16:51.848Z,-0.61
2022-12-03T15:19:20.325Z,-0.62
2022-12-03T15:21:48.385Z,-0.60
2022-12-03T15:24:17.188Z,-0.60
2022-12-03T15:26:45.574Z,-0.59
2022-12-03T15:29:13.597Z,-0.59
2022-12-03T15:31:41.880Z,-0.58
2022-12-03T15:34:10.130Z,-0.58
2022-12-03T15:36:38.452Z,-0.58
2022-12-03T15:39:06.774Z,-0.59
2022-12-03T15:41:34.961Z,-0.57
2022-12-03T15:44:03.197Z,-0.57
2022-12-03T15:46:31.764Z,-0.57
2022-12-03T15:49:00.595Z,-0.56
2022-12-03T15:51:28.700Z,-0.55
2022-12-03T15:53:56.878Z,-0.54
2022-12-03T15:56:25.478Z,-0.53
2022-12-03T15:58:53.764Z,-0.53
2022-12-03T16:01:22.015Z,-0.54
2022-12-03T16:03:52.901Z,-0.54
2022-12-03T16:06:21.134Z,-0.53
2022-12-03T16:08:52.179Z,-0.52
2022-12-03T16:11:20.315Z,-0.52
2022-12-03T16:13:51.434Z,-0.52
2022-12-03T16:16:19.742Z,-0.50
2022-12-03T16:18:48.273Z,-0.50
2022-12-03T16:21:16.372Z,-0.48
2022-12-03T16:23:44.577Z,-0.47
2022-12-03T16:26:12.754Z,-0.45
2022-12-03T16:28:40.807Z,-0.42
2022-12-03T16:31:09.029Z,-0.42
2022-12-03T16:33:37.349Z,-0.40
2022-12-03T16:36:05.728Z,-0.38
2022-12-03T16:38:33.805Z,-0.39
2022-12-03T16:41:02.420Z,-0.38
2022-12-03T16:43:35.688Z,-0.38
2022-12-03T16:46:27.931Z,-0.36
2022-12-03T16:49:00.731Z,-0.37
2022-12-03T16:51:32.301Z,-0.36
2022-12-03T16:54:00.464Z,-0.32
2022-12-03T16:56:28.642Z,-0.29
2022-12-03T16:58:57.051Z,-0.28
2022-12-03T17:01:28.171Z,-0.28
2022-12-03T17:03:56.509Z,-0.27
2022-12-03T17:06:26.894Z,-0.27
2022-12-03T17:08:55.131Z,-0.26
2022-12-03T17:11:23.181Z,-0.23
2022-12-03T17:13:51.524Z,-0.23
2022-12-03T17:16:19.722Z,-0.23
2022-12-03T17:18:51.021Z,-0.22
2022-12-03T17:21:19.286Z,-0.22
2022-12-03T17:23:51.007Z,-0.22
2022-12-03T17:26:19.453Z,-0.22
2022-12-03T17:28:47.723Z,-0.22
2022-12-03T17:31:16.323Z,-0.21
2022-12-03T17:33:44.584Z,-0.22
2022-12-03T17:36:13.201Z,-0.22
2022-12-03T17:38:41.248Z,-0.21
2022-12-03T17:41:10.332Z,-0.22
2022-12-03T17:43:38.758Z,-0.22
2022-12-03T17:46:07.466Z,-0.22
2022-12-03T17:48:36.053Z,-0.22
2022-12-03T17:51:04.533Z,-0.23
2022-12-03T17:53:32.610Z,-0.23
2022-12-03T17:56:00.827Z,-0.23
2022-12-03T17:58:29.179Z,-0.22
2022-12-03T18:01:02.443Z,-0.24
2022-12-03T18:03:31.664Z,-0.27
2022-12-03T18:05:59.838Z,-0.28
2022-12-03T18:08:34.474Z,-0.27
2022-12-03T18:11:05.060Z,-0.28
2022-12-03T18:13:33.146Z,-0.27
2022-12-03T18:16:01.676Z,-0.28
2022-12-03T18:18:29.759Z,-0.28
2022-12-03T18:21:02.135Z,-0.28
2022-12-03T18:23:32.331Z,-0.29
2022-12-03T18:26:02.351Z,-0.30
2022-12-03T18:28:31.412Z,-0.29
2022-12-03T18:31:00.346Z,-0.26
2022-12-03T18:33:28.758Z,-0.22
2022-12-03T18:35:58.625Z,-0.19
2022-12-03T18:38:30.610Z,-0.19
2022-12-03T18:40:59.511Z,-0.19
2022-12-03T18:43:28.466Z,-0.19
2022-12-03T18:45:56.584Z,-0.19
2022-12-03T18:48:25.323Z,-0.20
2022-12-03T18:50:53.437Z,-0.19
2022-12-03T18:53:24.174Z,-0.19
2022-12-03T18:55:52.319Z,-0.18
2022-12-03T18:58:20.557Z,-0.19
2022-12-03T19:00:48.998Z,-0.19
2022-12-03T19:03:17.182Z,-0.19
2022-12-03T19:05:45.377Z,-0.19
2022-12-03T19:08:15.178Z,-0.18
2022-12-03T19:10:43.682Z,-0.16
2022-12-03T19:13:12.010Z,-0.16
2022-12-03T19:15:40.269Z,-0.17
2022-12-03T19:18:08.443Z,-0.17
2022-12-03T19:20:40.069Z,-0.17
2022-12-03T19:23:09.116Z,-0.18
2022-12-03T19:25:37.305Z,-0.17
2022-12-03T19:28:05.461Z,-0.17
2022-12-03T19:30:33.801Z,-0.16
2022-12-03T19:33:01.901Z,-0.16
2022-12-03T19:35:31.382Z,-0.15
2022-12-03T19:37:59.594Z,-0.12
2022-12-03T19:40:27.783Z,-0.10
2022-12-03T19:42:56.038Z,-0.08
2022-12-03T19:45:24.416Z,-0.09
2022-12-03T19:47:52.587Z,-0.10
2022-12-03T19:50:23.183Z,-0.13
2022-12-03T19:52:54.492Z,-0.16
2022-12-03T19:55:22.702Z,-0.16
2022-12-03T19:57:53.755Z,-0.16
2022-12-03T20:00:22.528Z,-0.15
2022-12-03T20:02:50.885Z,-0.15
2022-12-03T20:05:19.131Z,-0.15
2022-12-03T20:07:47.532Z,-0.16
2022-12-03T20:10:15.810Z,-0.14
2022-12-03T20:12:44.045Z,-0.15
2022-12-03T20:15:14.089Z,-0.14
2022-12-03T20:17:42.311Z,-0.12
2022-12-03T20:20:10.834Z,-0.12
2022-12-03T20:22:39.124Z,-0.10
2022-12-03T20:25:07.655Z,-0.09
2022-12-03T20:27:36.597Z,-0.07
2022-12-03T20:30:07.654Z,-0.06
2022-12-03T20:32:39.418Z,-0.05
2022-12-03T20:35:12.137Z,-0.04
2022-12-03T20:37:40.409Z,-0.02
2022-12-03T20:40:09.022Z,-0.00
2022-12-03T20:42:37.318Z,0.00
2022-12-03T20:45:05.997Z,0.00
2022-12-03T20:47:34.071Z,-0.01
2022-12-03T20:50:02.538Z,-0.00
2022-12-03T20:52:30.786Z,0.00
2022-12-03T20:54:58.935Z,-0.01
2022-12-03T20:57:30.302Z,0.01
2022-12-03T20:59:58.469Z,-0.01
2022-12-03T21:02:26.794Z,-0.02
2022-12-03T21:04:55.238Z,-0.03
2022-12-03T21:07:23.375Z,-0.04
2022-12-03T21:09:51.497Z,-0.05
2022-12-03T21:12:19.757Z,-0.05
2022-12-03T21:14:47.975Z,-0.05
2022-12-03T21:17:16.054Z,-0.04
2022-12-03T21:19:44.500Z,-0.05
2022-12-03T21:22:12.916Z,-0.05
2022-12-03T21:24:42.853Z,-0.04
2022-12-03T21:27:11.335Z,-0.03
2022-12-03T21:29:39.442Z,-0.04
2022-12-03T21:32:07.564Z,-0.04
2022-12-03T21:34:36.630Z,-0.04
2022-12-03T21:37:04.883Z,-0.05
2022-12-03T21:39:33.010Z,-0.04
2022-12-03T21:42:25.910Z,-0.05
2022-12-03T21:44:49.405Z,-0.04
2022-12-03T21:47:17.751Z,-0.03
2022-12-03T21:49:45.958Z,-0.02
2022-12-03T21:52:14.077Z,0.01
2022-12-03T21:54:42.473Z,0.02
2022-12-03T21:57:10.554Z,0.04
2022-12-03T21:59:38.810Z,0.05
2022-12-03T22:02:07.323Z,0.06
2022-12-03T22:04:35.505Z,0.06
2022-12-03T22:07:04.698Z,0.06
2022-12-03T22:09:33.563Z,0.05
2022-12-03T22:12:01.784Z,0.05
2022-12-03T22:14:30.452Z,0.05
2022-12-03T22:16:59.039Z,0.06
2022-12-03T22:19:27.619Z,0.08
2022-12-03T22:21:55.827Z,0.09
2022-12-03T22:24:24.375Z,0.10
2022-12-03T22:26:54.703Z,0.13
2022-12-03T22:29:22.974Z,0.15
2022-12-03T22:31:51.656Z,0.15
2022-12-03T22:34:19.891Z,0.13
2022-12-03T22:36:47.995Z,0.11
2022-12-03T22:39:16.303Z,0.13
2022-12-03T22:41:44.347Z,0.15
2022-12-03T22:44:12.856Z,0.16
2022-12-03T22:46:41.273Z,0.18
2022-12-03T22:49:09.350Z,0.19
2022-12-03T22:51:37.464Z,0.20
2022-12-03T22:54:06.046Z,0.21
2022-12-03T22:56:34.216Z,0.19
2022-12-03T22:59:02.882Z,0.18
2022-12-03T23:01:39.866Z,0.19
2022-12-03T23:04:10.661Z,0.19
2022-12-03T23:06:39.754Z,0.20
2022-12-03T23:09:08.431Z,0.21
2022-12-03T23:11:37.182Z,0.22
2022-12-03T23:14:05.917Z,0.24
2022-12-03T23:16:34.347Z,0.26
2022-12-03T23:19:03.563Z,0.28
2022-12-03T23:21:34.476Z,0.29
2022-12-03T23:24:04.772Z,0.30
2022-12-03T23:26:36.965Z,0.29
2022-12-03T23:29:06.281Z,0.30
2022-12-03T23:31:35.238Z,0.32
2022-12-03T23:34:04.010Z,0.32
2022-12-03T23:36:33.346Z,0.33
2022-12-03T23:39:01.752Z,0.34
2022-12-03T23:41:30.006Z,0.35
2022-12-03T23:43:58.334Z,0.36
2022-12-03T23:46:27.602Z,0.37
2022-12-03T23:48:58.635Z,0.37
2022-12-03T23:51:27.636Z,0.37
2022-12-03T23:53:56.381Z,0.37
2022-12-03T23:56:30.665Z,0.38
2022-12-03T23:58:58.973Z,0.37
